x

La Perouse Bank (46206) Wave Buoy

1:00 - Sat 5th Sep 2015 All times are PDT. -7 hours from GMT.

  • Sig Wave height 3.0ft
  • Peak Period 12s
  • Wind
    11mph, 13mph gusts
  • Sea Temp 58°f
  • Ar Temp 57°f
  • Sea Pressure 1017.4mb
  • La Perouse Bank
  • La Perouse Bank

More Historic Weather Station data

Upgrade to MSW Pro to gain access to the past 30 days of data for over 8000 Wavebouys and Weather Stations around the globe.

Join Pro

Comparision Forecast

View Surf forecast
   
Sáb 09/05 1:00 3ft 12s 11 13 mph 1017.4mb 58f 57f
12:00 3ft 12s 13 16 mph 1017.3mb 58f 57f
Sex 09/04 11:00 3ft 7s 9 11 mph 1017.4mb 58f 57f
10:00 3ft 13s 11 13 mph 1017.4mb 58f 57f
9:00 3ft 8s 11 13 mph 1017.4mb 58f 58f
8:00 3ft 11s 11 13 mph 1017mb 58f 58f
7:00 3ft 8s 11 13 mph 1016.9mb 58f 58f
6:00 3.5ft 8s 11 13 mph 1016.8mb 58f 58f
5:00 3.5ft 8s 11 13 mph 1016.9mb 58f 58f
4:00 3.5ft 8s 13 16 mph 1017.1mb 58f 57f
3:00 3.5ft 8s 11 13 mph 1017.3mb 58f 57f
2:00 4ft 8s 7 9 mph 1017.5mb 58f 56f
1:00 4ft 8s 4 7 mph 1017.6mb 58f 56f
12:00 4ft 8s 2 4 mph 1017.7mb 58f 55f
11:00 4ft 9s 2 4 mph 1017.9mb 58f 55f
10:00 3.5ft 8s 4
mph
1017.9mb 57f 55f
9:00 3.5ft 8s 4
mph
1018mb 57f 54f
8:00 3.5ft 9s 2 4 mph 1017.9mb 57f 55f
7:00 3.5ft 9s 4
mph
1017.4mb 57f 55f
6:00 3.5ft 9s 4
mph
1017.1mb 57f 54f
5:00 3.5ft 8s 4
mph
1016.7mb 57f 54f
4:00 3.5ft 9s 4 7 mph 1016.5mb 57f 54f
3:00 3.5ft 10s 7 9 mph 1016.4mb 57f 54f
2:00 3.5ft 8s 9
mph
1016.6mb 58f 54f
1:00 4ft 9s 9
mph
1016.7mb 57f 55f
12:00 4ft 8s 2
mph
1016.7mb 57f 56f
Qui 09/03 11:00 4.5ft 10s 2
mph
1016.5mb 57f 56f
10:00 4.5ft 9s 2 4 mph 1016.6mb 58f 56f
9:00 4.5ft 9s 4
mph
1016.4mb 58f 56f
8:00 4.5ft 10s 4 7 mph 1015.8mb 58f 57f
7:00 5ft 9s 4 7 mph 1015.5mb 59f 57f
6:00 5ft 9s 4
mph
1015.5mb 59f 58f
5:00 5ft 9s 4 7 mph 1015.3mb 60f 58f
4:00 5ft 10s  -  2 mph 1015.4mb 60f 59f
3:00 5ft 9s 2 4 mph 1015.6mb 60f 58f
2:00 5ft 10s 2 4 mph 1015.6mb 58f 58f
1:00 5.5ft 8s 2 4 mph 1015.6mb 58f 57f
12:00 5.5ft 9s 2 4 mph 1015.6mb 58f 57f
11:00 5.5ft 10s 2 4 mph 1015.7mb 57f 56f
10:00 6ft 10s 2 4 mph 1015.4mb 57f 55f
9:00 6ft 10s  -  2 mph 1015.2mb 57f 56f
8:00 6ft 10s  -  mph 1015.1mb 57f 55f
7:00 6ft 10s 2 4 mph 1014.7mb 56f 55f
6:00 7ft 11s 4
mph
1014.3mb 56f 55f
5:00 7ft 11s 4
mph
1014mb 56f 56f
4:00 7ft 11s 2 4 mph 1013.9mb 56f 56f
3:00 7ft 11s  -  mph 1013.9mb 56f 55f
2:00 7ft 11s  -  2 mph 1013.8mb 56f 56f
1:00 7ft 11s 2 4 mph 1013.8mb 55f 56f
12:00 7.5ft 10s  -  2 mph 1013.9mb 55f 56f
Qua 09/02 11:00 8.5ft 11s 2 4 mph 1013.8mb 56f 56f
10:00 8ft 10s 4 7 mph 1014.1mb 56f 57f
9:00 8.5ft 12s 2 4 mph 1013.9mb 56f 56f
8:00 8ft 11s 4 7 mph 1013.4mb 56f 56f
7:00 8.5ft 11s 2 4 mph 1012.9mb 56f 56f
6:00 9ft 10s 4 7 mph 1012.6mb 56f 57f
5:00 9ft 11s 7 9 mph 1012.4mb 56f 57f
4:00 8.5ft 12s 11 13 mph 1012mb 55f 57f
3:00 9ft 12s 11 16 mph 1011.4mb 55f 57f
2:00 9ft 12s 9 11 mph 1011.3mb 55f 57f
1:00 9ft 12s 7 9 mph 1010.9mb 55f 57f
12:00 9ft 12s 9 13 mph 1010.9mb 55f 57f
11:00 10ft 11s 7 9 mph 1010.6mb 55f 56f
10:00 9ft 12s 18 27 mph 1010.1mb 55f 55f
9:00 10ft 12s 9 11 mph 1009.4mb 54f 56f
8:00 10ft 12s 11 13 mph 1008.9mb 54f 56f
7:00 9ft 11s 11 13 mph 1008.5mb 54f 57f
6:00 9ft 12s 11 13 mph 1008.1mb 53f 57f
5:00 9ft 11s 13 20 mph 1007.7mb 53f 56f
4:00 9ft 11s 9 11 mph 1007.4mb 54f 56f
3:00 10ft 11s 11 13 mph 1007.4mb 54f 57f
2:00 9ft 12s 7 9 mph 1007.5mb 55f 57f
1:00 10ft 12s 7 9 mph 1007.7mb 55f 57f
12:00 11ft 11s 4 7 mph 1007.6mb 55f 57f
Ter 09/01 11:00 10ft 11s 7 9 mph 1007.7mb 55f 57f
10:00 10ft 11s 4
mph
1007.8mb 55f 55f
9:00 8.5ft 10s 2 4 mph 1007.7mb 55f 55f
8:00 9ft 11s 7 9 mph 1007.2mb 55f 55f
7:00 9ft 11s 4 7 mph 1006.9mb 55f 57f
6:00 9ft 11s 4 9 mph 1006.5mb 55f 56f
5:00 8ft 11s 11
mph
1006.2mb 55f 56f
4:00 8.5ft 12s 7 9 mph 1006.7mb 56f 58f
3:00 8ft 12s 13 18 mph 1007.2mb 56f 58f
2:00 7.5ft 12s 16 20 mph 1007.7mb 55f 57f
1:00 8ft 12s 9 11 mph 1007.9mb 55f 58f
12:00 8ft 11s 11 16 mph 1008.3mb 55f 58f
11:00 7.5ft 11s  -  2 mph 1008.5mb 56f 57f
10:00 7.5ft 11s 13 22 mph 1008.4mb 56f 59f